Latest Weather Observations for Adelaide (West Terrace / ngayirdapira)

IDS60801

Issued at 11:31 am CDT Sunday 18 February 2018 (issued every 30 minutes, with the page automatically refreshed every 10 minutes)

About weather observations | Map of weather stations | Latest weather observations for SA | Other Formats
Station Details ID: 023000 Name: ADELAIDE (WEST TERRACE / NGAYIRDAPIRA) Lat: -34.93 Lon: 138.58 Height: 29.32 m
Data from the previous 72 hours. | See also: Recent months at Adelaide (West Terrace / ngayirdapira)
Date/Time
CDT
Temp
°C
App
Temp
°C
Dew
Point
°C
Rel
Hum
%
Delta-T
°C
Wind Press
QNH
hPa
Press
MSL
hPa
Rain since
9am
mm
Dir  Spd
km/h
Gust
km/h
Spd
kts
Gust
kts
18/11:30am 25.2 23.9 11.4 42 7.8 S 9 17 5 9 1012.0 1011.9 0.0
18/11:00am 25.4 23.1 11.9 43 7.7 SSW 15 20 8 11 1012.4 1012.3 0.0
18/10:30am 25.5 23.3 10.9 40 8.2 SW 13 19 7 10 1012.2 1012.1 0.0
18/10:00am 24.8 25.3 11.7 44 7.4 CALM 0 0 0 0 1011.4 1011.3 0.0
18/09:30am 23.7 24.5 12.4 49 6.5 CALM 0 0 0 0 1011.3 1011.2 0.0
18/09:00am 22.6 23.6 13.1 55 5.5 CALM 0 0 0 0 1011.1 1011.0 0.0
18/08:30am 20.3 21.4 13.5 65 3.9 CALM 0 0 0 0 1010.8 1010.7 0.0
18/08:00am 18.6 19.7 13.5 72 2.9 CALM 0 0 0 0 1010.5 1010.4 0.0
18/07:30am 17.3 18.1 12.6 74 2.6 CALM 0 6 0 3 1009.9 1009.7 0.0
18/07:00am 17.1 17.9 12.6 75 2.5 CALM 0 0 0 0 1009.5 1009.3 0.0
18/06:30am 17.3 18.2 12.8 75 2.5 CALM 0 0 0 0 1009.1 1008.9 0.0
18/06:00am 17.4 18.3 12.9 75 2.5 CALM 0 0 0 0 1008.4 1008.2 0.0
18/05:30am 17.7 18.5 12.4 71 2.9 CALM 0 0 0 0 1008.5 1008.3 0.0
18/05:00am 18.9 19.7 12.4 66 3.6 CALM 0 0 0 0 1008.6 1008.4 0.0
18/04:30am 18.2 19.0 12.6 70 3.1 CALM 0 0 0 0 1009.1 1008.9 0.0
18/04:00am 17.5 18.3 12.6 73 2.7 CALM 0 6 0 3 1009.0 1008.8 0.0
18/03:30am 18.1 18.7 13.2 73 2.8 SSE 2 7 1 4 1009.0 1008.8 0.0
18/03:00am 17.7 18.6 13.0 74 2.6 CALM 0 0 0 0 1009.4 1009.2 0.0
18/02:30am 18.2 19.2 13.3 73 2.8 CALM 0 0 0 0 1009.5 1009.3 0.0
18/02:00am 18.2 19.2 13.3 73 2.8 CALM 0 0 0 0 1009.8 1009.6 0.0
18/01:30am 18.6 19.6 13.2 71 3.1 CALM 0 0 0 0 1010.1 1009.9 0.0
18/01:00am 18.6 19.6 13.2 71 3.1 CALM 0 0 0 0 1010.3 1010.1 0.0
18/12:30am 18.4 19.4 13.1 71 3.0 CALM 0 0 0 0 1010.6 1010.5 0.0
18/12:00am 19.0 20.0 13.2 69 3.3 CALM 0 0 0 0 1011.0 1010.9 0.0
 
Date/Time
CDT
Temp
°C
App
Temp
°C
Dew
Point
°C
Rel
Hum
%
Delta-T
°C
Wind Press
QNH
hPa
Press
MSL
hPa
Rain since
9am
mm
Dir  Spd
km/h
Gust
km/h
Spd
kts
Gust
kts
17/11:30pm 19.0 20.1 13.4 70 3.2 CALM 0 0 0 0 1011.1 1011.0 0.0
17/11:00pm 19.1 20.3 13.7 71 3.1 CALM 0 0 0 0 1011.3 1011.2 0.0
17/10:30pm 19.9 20.3 13.8 68 3.5 SW 4 6 2 3 1011.2 1011.1 0.0
17/10:00pm 21.4 21.9 14.1 63 4.3 NE 4 13 2 7 1011.2 1011.1 0.0
17/09:30pm 20.3 21.6 14.2 68 3.5 CALM 0 0 0 0 1011.2 1011.1 0.0
17/09:00pm 20.7 22.0 14.1 66 3.8 CALM 0 0 0 0 1010.9 1010.8 0.0
17/08:30pm 21.4 21.1 14.3 64 4.2 SW 9 13 5 7 1010.7 1010.6 0.0
17/08:00pm 21.9 20.6 13.8 60 4.7 WSW 13 19 7 10 1010.4 1010.3 0.0
17/07:30pm 23.6 22.3 12.6 50 6.3 WSW 11 13 6 7 1010.0 1009.8 0.0
17/07:00pm 24.6 22.6 11.5 44 7.4 WSW 13 17 7 9 1009.9 1009.7 0.0
17/06:30pm 25.4 23.7 11.2 41 8.0 SSW 11 17 6 9 1010.0 1009.8 0.0
17/06:00pm 24.7 23.0 11.3 43 7.6 SW 11 17 6 9 1010.1 1009.9 0.0
17/05:30pm 25.0 23.7 12.6 46 7.2 SW 11 15 6 8 1010.5 1010.4 0.0
17/05:00pm 25.2 23.9 13.7 49 6.8 WSW 13 19 7 10 1010.8 1010.7 0.0
17/04:30pm 23.9 22.8 13.2 51 6.2 SW 11 17 6 9 1011.1 1011.0 0.0
17/04:00pm 24.0 22.4 12.9 50 6.4 SW 13 20 7 11 1011.4 1011.3 0.0
17/03:30pm 24.6 22.7 12.9 48 6.8 WSW 15 22 8 12 1011.7 1011.6 0.0
17/03:00pm 24.5 22.7 12.1 46 7.1 SW 13 22 7 12 1011.9 1011.8 0.0
17/02:30pm 24.9 23.3 13.8 50 6.5 WSW 15 22 8 12 1012.1 1012.0 0.0
17/02:00pm 25.1 23.3 13.3 48 6.9 SW 15 24 8 13 1012.3 1012.2 0.0
17/01:30pm 25.5 24.2 13.7 48 7.0 SW 13 20 7 11 1012.4 1012.3 0.0
17/01:00pm 24.4 23.0 13.3 50 6.5 WSW 13 17 7 9 1012.5 1012.4 0.0
17/12:30pm 24.9 24.2 13.1 48 6.9 W 9 17 5 9 1012.9 1012.8 0.0
17/12:00pm 23.5 21.9 12.8 51 6.2 WSW 13 19 7 10 1013.5 1013.4 0.0
17/11:30am 23.0 23.4 11.1 47 6.6 CALM 0 0 0 0 1013.7 1013.6 0.0
17/11:00am 23.5 23.0 11.9 48 6.6 SW 6 11 3 6 1014.0 1013.9 0.0
17/10:30am 22.3 21.8 12.0 52 5.8 NE 6 13 3 7 1014.1 1014.0 0.0
17/10:00am 20.8 20.0 11.2 54 5.3 N 6 9 3 5 1014.5 1014.4 0.0
17/09:30am 20.3 20.8 11.5 57 4.9 CALM 0 0 0 0 1014.6 1014.5 0.0
17/09:00am 18.9 18.8 10.7 59 4.4 NNE 2 9 1 5 1014.6 1014.5 0.0
17/08:30am 18.0 18.4 11.3 65 3.6 CALM 0 0 0 0 1014.4 1014.3 0.0
17/08:00am 16.6 15.9 11.5 72 2.8 NE 6 11 3 6 1014.2 1014.1 0.0
17/07:30am 15.9 16.1 11.7 76 2.3 NNE 2 7 1 4 1013.9 1013.8 0.0
17/07:00am 14.9 14.3 11.7 81 1.7 N 6 7 3 4 1013.6 1013.5 0.0
17/06:30am 13.9 14.3 11.2 84 1.4 CALM 0 0 0 0 1013.1 1013.0 0.0
17/06:00am 14.4 15.0 11.9 85 1.3 CALM 0 0 0 0 1012.7 1012.6 0.0
17/05:30am 13.7 14.1 11.2 85 1.3 CALM 0 0 0 0 1012.6 1012.5 0.0
17/05:00am 14.1 14.5 11.1 82 1.6 CALM 0 0 0 0 1012.6 1012.5 0.0
17/04:30am 14.1 14.5 11.3 83 1.5 CALM 0 0 0 0 1012.5 1012.4 0.0
17/04:00am 14.4 14.8 11.4 82 1.6 CALM 0 0 0 0 1012.7 1012.6 0.0
17/03:30am 15.0 15.5 11.6 80 1.8 CALM 0 0 0 0 1012.8 1012.7 0.0
17/03:00am 14.9 15.3 11.1 78 2.0 CALM 0 0 0 0 1012.8 1012.7 0.0
17/02:30am 15.4 15.9 11.6 78 2.0 CALM 0 0 0 0 1013.0 1012.9 0.0
17/02:00am 15.1 15.4 10.9 76 2.2 CALM 0 0 0 0 1013.1 1013.0 0.0
17/01:30am 16.2 16.6 11.4 73 2.6 CALM 0 0 0 0 1013.7 1013.6 0.0
17/01:00am 16.4 15.8 11.6 73 2.6 SSE 6 7 3 4 1014.1 1014.0 0.0
17/12:30am 17.7 16.8 11.3 66 3.5 ESE 7 9 4 5 1014.2 1014.1 0.0
17/12:00am 16.9 17.5 11.8 72 2.8 CALM 0 0 0 0 1014.5 1014.4 0.0
 
Date/Time
CDT
Temp
°C
App
Temp
°C
Dew
Point
°C
Rel
Hum
%
Delta-T
°C
Wind Press
QNH
hPa
Press
MSL
hPa
Rain since
9am
mm
Dir  Spd
km/h
Gust
km/h
Spd
kts
Gust
kts
16/11:30pm 17.2 17.7 11.5 69 3.1 CALM 0 0 0 0 1014.8 1014.7 0.0
16/11:00pm 18.0 17.4 11.8 67 3.4 ESE 6 11 3 6 1014.7 1014.6 0.0
16/10:30pm 17.8 16.9 11.4 66 3.5 SSE 7 11 4 6 1014.7 1014.6 0.0
16/10:00pm 18.7 17.8 11.3 62 4.0 SSE 7 11 4 6 1014.6 1014.5 0.0
16/09:30pm 19.7 18.6 12.0 61 4.3 SSE 9 15 5 8 1014.5 1014.4 0.0
16/09:00pm 19.9 19.0 13.6 67 3.6 SSW 11 15 6 8 1014.3 1014.2 0.0
16/08:30pm 20.2 18.9 13.6 66 3.8 SW 13 22 7 12 1014.3 1014.2 0.0
16/08:00pm 20.8 18.7 13.5 63 4.2 SW 17 24 9 13 1014.2 1014.1 0.0
16/07:30pm 21.9 20.4 13.0 57 5.1 SSW 13 20 7 11 1013.9 1013.8 0.0
16/07:00pm 22.5 20.4 12.4 52 5.7 SW 15 24 8 13 1014.0 1013.9 0.0
16/06:30pm 23.0 20.2 11.4 48 6.5 SW 17 24 9 13 1014.2 1014.1 0.0
16/06:00pm 22.8 20.0 12.7 53 5.8 SW 19 28 10 15 1014.2 1014.1 0.0
16/05:30pm 23.3 20.6 11.7 48 6.5 SW 17 24 9 13 1014.3 1014.2 0.0
16/05:00pm 23.3 20.6 11.7 48 6.5 SW 17 26 9 14 1014.4 1014.3 0.0
16/04:30pm 23.4 20.4 11.8 48 6.5 SW 19 28 10 15 1014.6 1014.5 0.0
16/04:00pm 24.0 21.2 12.6 49 6.5 SW 19 28 10 15 1014.8 1014.7 0.0
16/03:30pm 23.4 21.2 12.1 49 6.4 WSW 15 28 8 15 1015.0 1014.9 0.0
16/03:00pm 23.3 20.9 12.6 51 6.1 SW 17 28 9 15 1015.4 1015.3 0.0
16/02:30pm 23.2 20.8 12.8 52 6.0 WSW 17 28 9 15 1015.7 1015.6 0.0
16/02:00pm 23.5 21.5 12.8 51 6.2 SW 15 22 8 12 1015.8 1015.7 0.0
16/01:30pm 23.0 20.1 12.3 51 6.1 WSW 19 28 10 15 1015.8 1015.7 0.0
16/01:00pm 22.2 19.2 11.9 52 5.8 WSW 19 32 10 17 1016.0 1015.9 0.0
16/12:30pm 22.5 20.0 12.4 52 5.7 SW 17 22 9 12 1016.2 1016.1 0.0
16/12:00pm 22.1 21.3 12.9 56 5.3 SW 9 15 5 8 1016.5 1016.4 0.0
16/11:30am 21.3 19.6 12.4 57 5.0 WSW 13 22 7 12 1016.5 1016.4 0.0
16/11:00am 21.2 20.1 11.8 55 5.3 WSW 9 19 5 10 1016.6 1016.5 0.0
16/10:30am 21.7 20.8 12.5 56 5.2 SSW 9 19 5 10 1016.6 1016.5 0.0
16/10:00am 20.7 19.1 11.6 56 5.1 SSW 11 15 6 8 1016.6 1016.5 0.0
16/09:30am 20.0 18.9 11.8 59 4.5 S 9 15 5 8 1016.8 1016.7 0.0
16/09:00am 19.7 18.6 12.0 61 4.3 SSE 9 13 5 7 1016.8 1016.7 0.0
16/08:30am 19.1 19.3 11.9 63 4.0 SSE 2 7 1 4 1016.6 1016.5 0.0
16/08:00am 17.9 18.7 12.4 70 3.1 CALM 0 0 0 0 1016.3 1016.2 0.0
16/07:30am 16.3 17.2 12.8 80 1.9 CALM 0 0 0 0 1016.1 1016.0 0.0
16/07:00am 15.0 15.6 12.0 82 1.6 CALM 0 0 0 0 1015.9 1015.8 0.0
16/06:30am 14.9 15.5 12.0 83 1.6 CALM 0 0 0 0 1015.7 1015.6 0.0
16/06:00am 15.1 15.6 11.7 80 1.8 CALM 0 0 0 0 1015.4 1015.3 0.0
16/05:30am 15.7 16.4 12.3 80 1.9 CALM 0 2 0 1 1015.3 1015.2 0.0
16/05:00am 15.4 16.1 12.2 81 1.7 CALM 0 0 0 0 1015.3 1015.2 0.0
16/04:30am 15.9 16.6 12.1 78 2.1 CALM 0 0 0 0 1015.1 1015.0 0.0
16/04:00am 16.2 16.4 12.0 76 2.3 SSE 2 7 1 4 1015.0 1014.9 0.0
16/03:30am 16.7 17.3 12.0 74 2.6 CALM 0 7 0 4 1015.0 1014.9 0.0
16/03:00am 17.3 16.7 12.2 72 2.8 SSE 7 13 4 7 1015.2 1015.1 0.0
16/02:30am 17.0 16.3 11.9 72 2.8 S 7 11 4 6 1015.4 1015.3 0.0
16/02:00am 16.8 16.2 11.7 72 2.8 SSE 6 9 3 5 1015.6 1015.5 0.0
16/01:30am 17.0 16.4 11.7 71 2.9 SSE 6 7 3 4 1015.5 1015.4 0.0
16/01:00am 17.2 16.9 11.5 69 3.1 S 4 7 2 4 1015.5 1015.4 0.0
16/12:30am 17.9 16.7 11.5 66 3.5 S 9 17 5 9 1015.6 1015.5 0.0
16/12:00am 18.3 17.6 11.4 64 3.8 S 6 13 3 7 1015.5 1015.4 0.0
 
Date/Time
CDT
Temp
°C
App
Temp
°C
Dew
Point
°C
Rel
Hum
%
Delta-T
°C
Wind Press
QNH
hPa
Press
MSL
hPa
Rain since
9am
mm
Dir  Spd
km/h
Gust
km/h
Spd
kts
Gust
kts
15/11:30pm 18.8 17.5 11.4 62 4.0 S 9 13 5 7 1015.5 1015.4 0.0
15/11:00pm 18.8 18.0 11.6 63 4.0 S 7 9 4 5 1015.7 1015.6 0.0
15/10:30pm 19.2 17.9 11.3 60 4.3 S 9 15 5 8 1015.9 1015.8 0.0
15/10:00pm 19.5 18.0 11.8 61 4.3 S 11 19 6 10 1015.8 1015.7 0.0
15/09:30pm 19.6 18.0 11.6 60 4.4 SSW 11 20 6 11 1015.9 1015.8 0.0
15/09:00pm 19.7 17.8 11.7 60 4.4 S 13 20 7 11 1015.2 1015.1 0.0
15/08:30pm 19.8 18.8 12.3 62 4.2 S 9 13 5 7 1015.4 1015.3 0.0
15/08:00pm 19.8 18.1 12.3 62 4.2 SSW 13 20 7 11 1015.6 1015.5 0.0
15/07:30pm 20.1 18.7 12.3 61 4.4 SW 11 22 6 12 1015.6 1015.5 0.0
15/07:00pm 20.2 18.3 11.9 59 4.6 SW 13 22 7 12 1015.8 1015.7 0.0
15/06:30pm 20.4 18.2 12.1 59 4.6 SSW 15 26 8 14 1015.7 1015.6 0.0
15/06:00pm 20.3 18.5 12.0 59 4.6 SSW 13 24 7 13 1015.9 1015.8 0.0
15/05:30pm 20.8 18.9 11.7 56 5.1 SSW 13 20 7 11 1015.9 1015.8 0.0
15/05:00pm 20.6 17.6 10.7 53 5.4 WSW 17 22 9 12 1016.1 1016.0 0.0
15/04:30pm 21.9 19.6 10.4 48 6.3 SW 13 20 7 11 1016.2 1016.1 0.0
15/04:00pm 21.0 18.8 10.8 52 5.6 SW 13 20 7 11 1016.2 1016.1 0.0
15/03:30pm 22.3 19.9 10.1 46 6.6 SW 13 20 7 11 1016.6 1016.5 0.0
15/03:00pm 21.9 19.6 10.4 48 6.3 S 13 20 7 11 1016.6 1016.5 0.0
15/02:30pm 22.0 19.4 9.5 45 6.7 SW 13 19 7 10 1016.9 1016.8 0.0
15/02:00pm 21.0 18.4 10.8 52 5.6 WSW 15 20 8 11 1017.2 1017.1 0.0
15/01:30pm 21.4 18.3 10.3 49 6.0 SW 17 24 9 13 1017.2 1017.1 0.0
15/01:00pm 21.5 19.0 9.7 47 6.4 WSW 13 20 7 11 1017.2 1017.1 0.0
15/12:30pm 20.8 18.4 10.0 50 5.8 WSW 13 20 7 11 1017.6 1017.5 0.0
15/12:00pm 21.4 19.1 10.6 50 5.9 WNW 13 26 7 14 1017.7 1017.6 0.0

Other Formats:

Comma delimited format used in spreadsheet applications
http://www.bom.gov.au/fwo/IDS60801/IDS60801.94648.axf

JavaScript Object Notation format (JSON) in row-major order
http://www.bom.gov.au/fwo/IDS60801/IDS60801.94648.json